Flight Track Log - Related Links

Times and Time Zones

All times are in EDT time to prevent confusion due to time zone crossing. See the USC105 flight status page for this flight to view local times or setup timezone preferences in your user account.

Time Position Orientation Groundspeed Altitude Reporting Facility
EDT Latitude Longitude Course Direction KTS MPH feet Rate Location/Type
Wed 11:17:29 PM 41.5331 -81.7258 311° West 133 153 1,700  Level Cleveland Center
Wed 11:18:36 PM 41.5600 -81.7625 314° West 129 148 3,200 1,228 Climbing Cleveland Center
Wed 11:19:36 PM 41.5783 -81.8044 300° West 125 144 4,300 1,140 Climbing Cleveland Center
Wed 11:20:37 PM 41.5903 -81.8492 290° West 129 148 5,500 1,125 Climbing Cleveland Center
Wed 11:21:44 PM 41.6083 -81.8967 297° West 128 147 6,700 1,134 Climbing Cleveland Center
Wed 11:22:44 PM 41.6225 -81.9414 293° West 130 150 7,900 694 Climbing Cleveland Center
Wed 11:23:45 PM 41.6406 -81.9972 293° West 177 204 8,100 99 Climbing Cleveland Center
Wed 11:24:45 PM 41.6586 -82.0589 291° West 178 205 8,100  Level Cleveland Center
Wed 11:25:46 PM 41.6808 -82.1206 296° West 188 216 8,100  Level Cleveland Center
Wed 11:26:53 PM 41.7028 -82.1906 293° West 196 226 8,100  Level Cleveland Center
Wed 11:28:00 PM 41.7286 -82.2692 294° West 194 223 8,100  Level Cleveland Center
Wed 11:28:54 PM 41.7467 -82.3281 292° West 191 220 8,100 -52 Level Cleveland Center
Wed 11:29:55 PM 41.7664 -82.3956 291° West 192 221 8,000 -42 Descending Cleveland Center
Wed 11:31:16 PM 41.7964 -82.4800 296° West 192 221 8,000  Level Cleveland Center
Wed 11:32:17 PM 41.8200 -82.5503 294° West 191 220 8,000 -49 Level Cleveland Center
Wed 11:33:18 PM 41.8397 -82.6122 293° West 192 221 7,900  Descending Cleveland Center
Wed 11:34:19 PM 41.8892 -82.6528 329° Northwest 211 243 8,000  Climbing Cleveland Center
Wed 11:35:20 PM 41.9342 -82.6961 324° Northwest 201 231 7,900  Descending Cleveland Center
Wed 11:36:20 PM 41.9769 -82.7533 315° West 203 234 8,000  Climbing Cleveland Center
Wed 11:37:15 PM 42.0114 -82.8022 313° West 204 235 7,900 -273 Descending Cleveland Center
Wed 11:38:10 PM 42.0481 -82.8508 315° West 208 239 7,500 -514 Descending Cleveland Center
Wed 11:39:35 PM 42.1089 -82.9369 314° West 219 252 6,700 -614 Descending Cleveland Center
Wed 11:40:17 PM 42.1328 -82.9856 304° West 216 249 6,200 -804 Descending Cleveland Center
Wed 11:41:12 PM 42.1608 -83.0456 302° West 214 246 5,400 -582 Descending Cleveland Center
Wed 11:42:31 PM 42.2028 -83.1311 304° West 208 239 4,900 -236 Descending Cleveland Center
Wed 11:43:19 PM 42.2244 -83.1769 303° West 191 220 4,900  Level Cleveland Center
Wed 11:44:14 PM 42.2506 -83.2314 303° West 183 211 4,900 -440 Level Cleveland Center
Wed 11:45:08 PM 42.2697 -83.2939 293° West 198 228 4,100 -1,043 Descending Cleveland Center
Wed 11:46:09 PM 42.2869 -83.3619 289° West 194 223 2,900 -985 Descending Cleveland Center
Wed 11:47:22 PM 42.3061 -83.4358 289° West 169 194 1,900 -561 Descending Cleveland Center
Wed 11:48:28 PM 42.2778 -83.4822 230° Southwest 128 147 1,600 -425 Descending Cleveland Center
Wed 11:49:29 PM 42.2539 -83.5119 223° Southwest 118 136 1,000 -590 Descending Cleveland Center
Wed 11:51:00 PM 42.2333 -83.5167 270° West  Level FlightAware Approximate
Wed 11:58:00 PM 42.2393 -83.5310 270° West  Level Estimated

Login

Don't have an account? Register now (free) for customized features, flight alerts, and more!